Flight Track Log - Related Links

Times and Time Zones

All times are in EDT time to prevent confusion due to time zone crossing. See the RPA3392 flight status page for this flight to view local times or setup timezone preferences in your user account.

Time Position Orientation Groundspeed Altitude Reporting Facility
EDT Latitude Longitude Course Direction KTS MPH feet Rate Location/Type
Wed 07:08:09 PM 44.9444 -93.2367 115° Southeast 181 208 3,000  Level Minneapolis Center
Wed 07:09:12 PM 45.0058 -93.2008 22° Northeast 260 299 5,300 2,496 Climbing Minneapolis Center
Wed 07:10:14 PM 45.0264 -93.1083 73° East 276 318 8,200 2,710 Climbing Minneapolis Center
Wed 07:11:16 PM 44.9808 -93.0186 126° Southeast 279 321 10,900 2,661 Climbing Minneapolis Center
Wed 07:12:00 PM 44.5926 -92.3169 117° Southeast  Level FlightAware Approximate
Wed 07:12:18 PM 44.9308 -92.9211 126° Southeast 301 346 13,700  Level Minneapolis Center
Wed 07:13:00 PM 44.5438 -92.1814 115° Southeast  Level FlightAware Approximate
Wed 07:13:20 PM 44.8700 -92.8039 126° Southeast 308 354 16,200  Level Minneapolis Center
Wed 07:14:22 PM 44.8119 -92.6933 126° Southeast 345 397 18,200 2,032 Climbing Minneapolis Center
Wed 07:15:24 PM 44.7522 -92.5817 127° Southeast 355 409 20,400 1,742 Climbing Minneapolis Center
Wed 07:16:26 PM 44.7028 -92.4869 126° Southeast 370 426 21,800 1,694 Climbing Minneapolis Center
Wed 07:17:28 PM 44.6258 -92.3419 127° Southeast 384 442 23,900 1,742 Climbing Minneapolis Center
Wed 07:18:30 PM 44.5592 -92.2156 126° Southeast 398 458 25,400 1,597 Climbing Minneapolis Center
Wed 07:19:32 PM 44.4786 -92.0597 126° Southeast 412 474 27,200 1,548 Climbing Minneapolis Center
Wed 07:20:34 PM 44.4106 -91.9286 126° Southeast 417 480 28,600 1,200 Climbing Minneapolis Center
Wed 07:21:37 PM 44.3447 -91.7903 124° Southeast 425 489 29,700 1,056 Climbing Minneapolis Center
Wed 07:22:39 PM 44.2892 -91.6394 117° Southeast 435 501 30,800 919 Climbing Minneapolis Center
Wed 07:23:41 PM 44.2319 -91.4883 118° Southeast 440 506 31,600 968 Climbing Minneapolis Center
Wed 07:24:43 PM 44.1742 -91.3361 118° Southeast 444 511 32,800 1,122 Climbing Minneapolis Center
Wed 07:25:44 PM 44.1206 -91.1981 118° Southeast 444 511 33,900 1,016 Climbing Minneapolis Center
Wed 07:26:47 PM 44.0522 -91.0219 118° Southeast 438 504 34,900 528 Climbing Minneapolis Center
Wed 07:27:49 PM 43.9944 -90.8733 118° Southeast 439 505 35,000 48 Climbing Minneapolis Center
Wed 07:28:51 PM 43.9253 -90.6992 119° Southeast 434 499 35,000  Level Minneapolis Center
Wed 07:29:53 PM 43.8731 -90.5628 118° Southeast 435 501 35,000  Level Minneapolis Center
Wed 07:30:55 PM 43.8053 -90.3933 119° Southeast 431 496 35,000  Level Minneapolis Center
Wed 07:32:09 PM 43.7533 -90.2644 119° Southeast 431 496 35,000  Level Minneapolis Center
Wed 07:33:12 PM 43.6794 -90.0811 119° Southeast 430 495 35,000  Level Minneapolis Center
Wed 07:34:14 PM 43.6211 -89.9375 119° Southeast 429 494 35,000  Level Minneapolis Center
Wed 07:35:16 PM 43.5544 -89.7694 119° Southeast 428 493 35,000  Level Minneapolis Center
Wed 07:36:18 PM 43.5094 -89.6153 112° Southeast 436 502 35,000  Level Minneapolis Center
Wed 07:37:20 PM 43.4647 -89.4611 112° Southeast 435 501 35,000  Level Minneapolis Center
Wed 07:38:22 PM 43.4206 -89.3081 112° Southeast 433 498 35,000  Level Minneapolis Center
Wed 07:39:24 PM 43.3753 -89.1550 112° Southeast 433 498 35,000  Level Minneapolis Center
Wed 07:40:27 PM 43.3231 -88.9775 112° Southeast 432 497 35,000  Level Minneapolis Center
Wed 07:41:28 PM 43.2856 -88.8508 112° Southeast 432 497 35,000  Level Minneapolis Center
Wed 07:42:31 PM 43.2325 -88.6747 112° Southeast 432 497 35,000  Level Minneapolis Center
Wed 07:43:33 PM 43.1883 -88.5242 112° Southeast 432 497 35,000  Level Minneapolis Center
Wed 07:44:29 PM 43.1431 -88.3742 112° Southeast 429 494 35,000  Level Chicago Center
Wed 07:45:30 PM 43.1103 -88.2175 106° East 432 497 35,000  Level Chicago Center
Wed 07:46:32 PM 43.0919 -88.0556 99° East 432 497 35,000  Level Chicago Center
Wed 07:47:34 PM 43.0714 -87.8658 98° East 432 497 35,000  Level Chicago Center
Wed 07:48:36 PM 43.0531 -87.7025 99° East 436 502 35,000  Level Chicago Center
Wed 07:49:38 PM 43.0342 -87.5369 99° East 440 506 35,000  Level Chicago Center
Wed 07:50:40 PM 43.0144 -87.3575 98° East 442 509 35,000  Level Chicago Center
Wed 07:51:42 PM 42.9975 -87.1936 98° East 440 506 35,000  Level Chicago Center
Wed 07:52:44 PM 42.9778 -87.0311 99° East 436 502 35,000  Level Chicago Center
Wed 07:53:46 PM 42.9594 -86.8714 99° East 430 495 35,000  Level Chicago Center
Wed 07:54:48 PM 42.9406 -86.7103 99° East 430 495 35,000  Level Chicago Center
Wed 07:55:50 PM 42.9197 -86.5500 100° East 431 496 35,000  Level Chicago Center
Wed 07:56:52 PM 42.8961 -86.3586 99° East 431 496 35,000  Level Chicago Center
Wed 07:57:54 PM 42.8761 -86.2017 100° East 427 491 35,000  Level Chicago Center
Wed 07:58:56 PM 42.8567 -86.0453 100° East 428 493 35,000  Level Chicago Center
Wed 07:59:58 PM 42.8369 -85.8903 100° East 424 488 35,000  Level Chicago Center
Wed 08:01:00 PM 42.8128 -85.7019 100° East 426 490 35,000  Level Chicago Center
Wed 08:02:02 PM 42.7928 -85.5428 100° East 428 493 35,000  Level Chicago Center
Wed 08:03:04 PM 42.7503 -85.3944 111° Southeast 427 491 35,000  Level Chicago Center
Wed 08:04:06 PM 42.7000 -85.2475 115° Southeast 430 495 35,000  Level Chicago Center
Wed 08:05:08 PM 42.6481 -85.1017 116° Southeast 430 495 35,000  Level Chicago Center
Wed 08:06:10 PM 42.5969 -84.9564 116° Southeast 429 494 35,000  Level Chicago Center
Wed 08:07:12 PM 42.5344 -84.7825 116° Southeast 429 494 35,000  Level Chicago Center
Wed 08:08:14 PM 42.4822 -84.6361 116° Southeast 432 497 35,000  Level Chicago Center
Wed 08:08:58 PM 42.4442 -84.5397 118° Southeast 423 487 35,000  Level Cleveland Center
Wed 08:09:58 PM 42.3928 -84.3986 116° Southeast 423 487 35,000  Level Cleveland Center
Wed 08:10:57 PM 42.3392 -84.2519 116° Southeast 423 487 35,000  Level Cleveland Center
Wed 08:11:58 PM 42.2872 -84.1086 116° Southeast 423 487 35,000  Level Cleveland Center
Wed 08:12:57 PM 42.2333 -83.9597 116° Southeast 423 487 35,000  Level Cleveland Center
Wed 08:13:57 PM 42.1811 -83.8197 117° Southeast 423 487 35,000  Level Cleveland Center
Wed 08:14:58 PM 42.1267 -83.6742 117° Southeast 423 487 35,000  Level Cleveland Center
Wed 08:15:58 PM 42.0722 -83.5289 117° Southeast 429 494 35,000  Level Cleveland Center
Wed 08:16:58 PM 42.0111 -83.3917 121° Southeast 429 494 35,000  Level Cleveland Center
Wed 08:17:58 PM 41.9414 -83.2575 125° Southeast 435 501 35,000  Level Cleveland Center
Wed 08:18:58 PM 41.8733 -83.1292 125° Southeast 435 501 35,000  Level Cleveland Center
Wed 08:19:58 PM 41.8053 -82.9983 125° Southeast 435 501 35,000  Level Cleveland Center
Wed 08:20:57 PM 41.7328 -82.8675 127° Southeast 435 501 35,000  Level Cleveland Center
Wed 08:21:57 PM 41.6644 -82.7372 125° Southeast 435 501 35,000  Level Cleveland Center
Wed 08:22:58 PM 41.5900 -82.5958 125° Southeast 430 495 35,000  Level Cleveland Center
Wed 08:23:58 PM 41.5214 -82.4636 125° Southeast 430 495 35,000  Level Cleveland Center
Wed 08:24:58 PM 41.4506 -82.3339 126° Southeast 430 495 35,000  Level Cleveland Center
Wed 08:25:58 PM 41.3814 -82.2047 125° Southeast 430 495 35,000  Level Cleveland Center
Wed 08:26:58 PM 41.2956 -82.0922 135° Southeast 430 495 35,000  Level Cleveland Center
Wed 08:27:58 PM 41.1986 -81.9961 143° Southeast 430 495 35,000  Level Cleveland Center
Wed 08:28:58 PM 41.0978 -81.8975 144° Southeast 447 514 35,000  Level Cleveland Center
Wed 08:29:58 PM 41.0008 -81.7964 142° Southeast 452 520 35,000  Level Cleveland Center
Wed 08:30:57 PM 40.8997 -81.6983 144° Southeast 447 514 35,000  Level Cleveland Center
Wed 08:31:58 PM 40.8028 -81.5981 142° Southeast 452 520 35,000  Level Cleveland Center
Wed 08:32:58 PM 40.7033 -81.4978 143° Southeast 452 520 35,000  Level Cleveland Center
Wed 08:33:58 PM 40.6019 -81.3953 142° Southeast 458 527 35,000  Level Cleveland Center
Wed 08:34:58 PM 40.5172 -81.3069 142° Southeast 447 514 35,000  Level Cleveland Center
Wed 08:35:57 PM 40.4178 -81.2075 143° Southeast 447 514 35,000  Level Cleveland Center
Wed 08:36:57 PM 40.3203 -81.1006 140° Southeast 452 520 35,000  Level Cleveland Center
Wed 08:37:58 PM 40.2333 -80.9856 135° Southeast 452 520 35,000  Level Cleveland Center
Wed 08:38:58 PM 40.1439 -80.8736 136° Southeast 447 514 35,000  Level Cleveland Center
Wed 08:39:58 PM 40.0544 -80.7619 136° Southeast 447 514 35,000  Level Cleveland Center
Wed 08:40:58 PM 39.9650 -80.6508 136° Southeast 447 514 35,000  Level Cleveland Center
Wed 08:41:58 PM 39.8775 -80.5397 136° Southeast 447 514 35,000  Level Cleveland Center
Wed 08:42:58 PM 39.7878 -80.4264 136° Southeast 447 514 35,000  Level Cleveland Center
Wed 08:43:57 PM 39.6978 -80.3186 137° Southeast 447 514 35,000  Level Cleveland Center
Wed 08:45:07 PM 39.5906 -80.1886 137° Southeast 449 517 35,000  Level Washington Center
Wed 08:46:05 PM 39.5011 -80.0753 136° Southeast 443 510 35,000 -655 Level Washington Center
Wed 08:47:06 PM 39.4133 -79.9675 136° Southeast 443 510 33,700 -1,835 Descending Washington Center
Wed 08:48:06 PM 39.3236 -79.8550 136° Southeast 443 510 31,300 -1,361 Descending Washington Center
Wed 08:49:05 PM 39.2847 -79.7106 109° East 418 481 31,000 -151 Descending Washington Center
Wed 08:50:05 PM 39.2733 -79.5544 95° East 419 482 31,000 -200 Level Washington Center
Wed 08:51:05 PM 39.2636 -79.4036 95° East 419 482 30,600 -1,377 Descending Washington Center
Wed 08:52:07 PM 39.2478 -79.2472 97° East 433 498 28,200 -1,820 Descending Washington Center
Wed 08:53:07 PM 39.2375 -79.0967 95° East 433 498 26,900 -1,210 Descending Washington Center
Wed 08:54:06 PM 39.2231 -78.9486 97° East 421 484 25,800 -1,613 Descending Washington Center
Wed 08:55:06 PM 39.2081 -78.8061 98° East 411 473 23,700 -2,168 Descending Washington Center
Wed 08:56:05 PM 39.1953 -78.6661 97° East 405 466 21,500 -2,118 Descending Washington Center
Wed 08:57:05 PM 39.1817 -78.5344 98° East 387 445 19,500 -1,983 Descending Washington Center
Wed 08:58:06 PM 39.1683 -78.4028 97° East 382 440 17,500 -1,623 Descending Washington Center
Wed 08:59:07 PM 39.1439 -78.2786 104° East 363 418 16,200 -1,109 Descending Washington Center
Wed 09:00:05 PM 39.1133 -78.1597 108° East 353 406 15,300 -958 Descending Washington Center
Wed 09:01:06 PM 39.0822 -78.0411 109° East 348 400 14,300 -1,033 Descending Washington Center
Wed 09:02:07 PM 39.0514 -77.9250 109° East 348 400 13,200 -1,289 Descending Washington Center
Wed 09:03:07 PM 39.0242 -77.8147 108° East 338 389 11,700 -1,119 Descending Washington Center
Wed 09:04:05 PM 38.9950 -77.7069 109° East 326 375 11,000 -706 Descending Washington Center
Wed 09:05:06 PM 38.9694 -77.6047 108° East 306 352 10,300 -1,000 Descending Washington Center
Wed 09:05:41 PM 38.9500 -77.5500 115° Southeast 288 331 9,400 -1,832 Descending Potomac TRACON
Wed 09:06:41 PM 38.9500 -77.4500 90° East 285 328 7,400 -1,900 Descending Potomac TRACON
Wed 09:07:41 PM 38.9667 -77.3500 78° East 276 318 5,600 -1,200 Descending Potomac TRACON
Wed 09:08:41 PM 38.9833 -77.2667 76° East 242 278 5,000 -684 Descending Potomac TRACON
Wed 09:09:35 PM 38.9833 -77.2000 90° East 182 209 4,300 -778 Descending Potomac TRACON

Login

Don't have an account? Register now (free) for customized features, flight alerts, and more!